createdAt,value
2024-02-24T15:19:46.694Z,9.1
2024-02-24T15:25:05.845Z,9.13
2024-02-24T15:30:25.370Z,9.27
2024-02-24T15:41:03.684Z,9.21
2024-02-24T15:46:25.920Z,9.18
2024-02-24T15:57:01.361Z,9.74
2024-02-24T16:02:20.200Z,9.72
2024-02-24T16:12:57.726Z,9.42
2024-02-24T16:18:16.996Z,9.32
2024-02-24T16:23:36.187Z,9.09
2024-02-24T16:28:55.794Z,8.7
2024-02-24T16:39:33.992Z,8
2024-02-24T16:44:52.953Z,7.79
2024-02-24T16:55:31.824Z,7.19
2024-02-24T17:00:51.139Z,6.99
2024-02-24T17:06:10.047Z,6.78
2024-02-24T17:11:29.129Z,6.66
2024-02-24T17:22:08.307Z,6.51
2024-02-24T17:27:27.273Z,6.49
2024-02-24T17:38:06.708Z,6.15
2024-02-24T17:43:26.597Z,5.94
2024-02-24T17:48:46.233Z,5.62
2024-02-24T17:54:06.195Z,5.23
2024-02-24T17:59:24.582Z,5.09
2024-02-24T18:04:43.119Z,5.09
2024-02-24T18:15:21.429Z,4.67
2024-02-24T18:20:40.423Z,4.37
2024-02-24T18:31:18.894Z,4.71
2024-02-24T18:36:38.416Z,5.06
2024-02-24T18:41:57.884Z,5.47
2024-02-24T18:47:17.319Z,5.62
2024-02-24T18:57:56.185Z,5.52
2024-02-24T19:03:15.412Z,5.33
2024-02-24T19:13:54.303Z,5.03
2024-02-24T19:24:32.245Z,4.89
2024-02-24T19:29:52.096Z,4.71
2024-02-24T19:40:30.506Z,4.59
2024-02-24T19:45:50.016Z,4.54
2024-02-24T19:56:27.530Z,4.19
2024-02-24T20:01:46.530Z,3.91
2024-02-24T20:07:06.169Z,3.69
2024-02-24T20:12:25.448Z,3.62
2024-02-24T20:23:03.587Z,3.75
2024-02-24T20:28:23.031Z,3.66
2024-02-24T20:39:01.645Z,3.48
2024-02-24T20:44:20.410Z,3.28
2024-02-24T20:49:39.611Z,3.25
2024-02-24T20:54:58.780Z,3.25
2024-02-24T21:05:37.184Z,3.18
2024-02-24T21:10:56.846Z,3.07
2024-02-24T21:16:52.170Z,2.72
2024-02-24T21:22:09.279Z,2.29
2024-02-24T21:27:29.086Z,2.08
2024-02-24T21:32:48.127Z,1.88
2024-02-24T21:38:07.116Z,2.25
2024-02-24T21:43:26.285Z,1.93
2024-02-24T21:54:04.846Z,1.6
2024-02-24T21:59:24.143Z,1.74
2024-02-24T22:10:02.757Z,1.81
2024-02-24T22:15:22.117Z,1.88
2024-02-24T22:20:41.888Z,1.89
2024-02-24T22:26:01.113Z,1.84
2024-02-24T22:36:40.094Z,1.74
2024-02-24T22:41:58.358Z,1.35
2024-02-24T22:47:17.964Z,0.89
2024-02-24T22:52:37.336Z,0.76
2024-02-24T22:57:56.664Z,0.6
2024-02-24T23:03:15.673Z,0.6
2024-02-24T23:08:34.792Z,0.67
2024-02-24T23:19:13.809Z,0.65
2024-02-24T23:24:32.411Z,0.6
2024-02-24T23:35:11.150Z,0.06
2024-02-24T23:40:30.201Z,-0.03
2024-02-24T23:45:49.458Z,-0.01
2024-02-24T23:51:08.948Z,-0.13
